Accueil
METAR-TAF:

METAR-TAF

Aéroports :

Aéroport de Quimper Bretagne, Pluguffan

Quimper, France

latitude: 47-58N, longitude: 004-10W, altitude: 92 m

Observation

Le bulletin a été fait il y a 33 minutes, à 02:30 UTC
Vent 6 kt de nord-ouest
Température 12°C
Humidité 94%
Pression 1021 hPa
Visibilité 10 km ou plus
pas de nuages en-dessous de 1500 mètres et pas de cumulonimbus.

METAR: LFRQ 170230Z AUTO 31006KT CAVOK 12/11 Q1021

Heure: 05:03 (03:03 UTC)

Prévision

Le bulletin a été fait il y a 10 heures et 3 minutes, à 17:00 UTC
Prévision valable du 16 à 18 UTC au 17 à 18 UTC
Vent 10 kt de nord-ouest
Visibilité 10 km ou plus
Nuages épars à une hauteur de 3000 ft

TAF: LFRQ 161700Z 1618/1718 32010KT 9999 SCT030

Observations et prévisions météorologiques de plus de 4000 aéroports (messages METAR et TAF).

Les stations disponibles sont représentées par des disques jaunes et rouges sur la carte.

Passer la souris dessus pour voir le nom de la station.

Cliquer dessus pour voir les observations et prévisions météorologiques.

Pour changer de carte: cliquez sur les boutons verts avec une croix noire pour zoomer, sur le bouton vert avec un tiret pour effectuer un zoom arrière, ou sur les flèches vertes pour les cartes adjacentes.


METAR-TAF: